This is the latest recevied weather packets stored in our database for station/object SR5NLK-1. If no packets are shown the sender has not sent any weather packets the latest 10 day(s).
| Time | Temp. | Humidity | Pressure | Rain* | Wind** | Luminosity | Snow |
|---|---|---|---|---|---|---|---|
| 1787738641 | 26.11° C | 47% | 1065.8 hPa | 0 mm | - | - | - |
| 1787738402 | 26.11° C | 47% | 1039.5 hPa | 0 mm | - | - | - |
| 1787738102 | 25.56° C | 48% | 1090.9 hPa | 0 mm | - | - | - |
| 1787737936 | 28.89° C | 44% | 1059.5 hPa | 0 mm | - | - | - |
| 1787737802 | 25° C | 49% | 1023.8 hPa | 0 mm | - | - | - |
| 1787737615 | 28.89° C | 45% | 1025.6 hPa | 0 mm | - | - | - |
| 1787737502 | 24.44° C | 51% | 1083.5 hPa | 0 mm | - | - | - |
| 1787737337 | 28.33° C | 46% | 1059 hPa | 0 mm | - | - | - |
| 1787737202 | 24.44° C | 50% | 1085 hPa | 0 mm | - | - | - |
| 1787736980 | 28.33° C | 45% | 1031.7 hPa | 0 mm | - | - | - |
| 1787736936 | 23.89° C | 51% | 1080.4 hPa | 0 mm | - | - | - |
| 1787736902 | 23.89° C | 51% | 1080.4 hPa | 0 mm | - | - | - |
| 1787736680 | 28.33° C | 46% | 1078.4 hPa | 0 mm | - | - | - |
| 1787736661 | 23.89° C | 51% | 1025.6 hPa | 0 mm | - | - | - |
| 1787736602 | 23.89° C | 52% | 994 hPa | 0 mm | - | - | - |
| 1787736302 | 22.78° C | 54% | 1015.4 hPa | 0 mm | - | - | - |
| 1787736286 | 27.78° C | 46% | 1008.7 hPa | 0 mm | - | - | - |
| 1787736002 | 22.22° C | 55% | 1062.7 hPa | 0 mm | - | - | - |
| 1787735943 | 27.78° C | 46% | 1008.7 hPa | 0 mm | - | - | - |
| 1787735620 | 27.78° C | 47% | 1034.4 hPa | 0 mm | - | - | - |
| 1787735402 | 20.56° C | 56% | 1078.8 hPa | 0 mm | - | - | - |
| 1787735102 | 21.11° C | 54% | 992.7 hPa | 0 mm | - | - | - |
| 1787734837 | 21.11° C | 52% | 1075.8 hPa | 0 mm | - | - | - |
| 1787734802 | 21.11° C | 52% | 1075.8 hPa | 0 mm | - | - | - |
| 1787734681 | 21.67° C | 52% | 1038.7 hPa | 0 mm | - | - | - |
* Rain latest hour (hover to see other rain measurements)
** Current wind speed in m/s (hover to see current wind gust speed)